sensor_id;sensor_type;location;lat;lon;timestamp;P1;durP1;ratioP1;P2;durP2;ratioP2
12048;SDS011;6085;49.452;8.502;2023-04-26T00:03:09;2.25;;;1.90;;
12048;SDS011;6085;49.452;8.502;2023-04-26T00:07:12;2.88;;;2.03;;
12048;SDS011;6085;49.452;8.502;2023-04-26T00:11:14;2.10;;;1.95;;
12048;SDS011;6085;49.452;8.502;2023-04-26T00:15:16;2.42;;;2.10;;
12048;SDS011;6085;49.452;8.502;2023-04-26T00:19:20;2.22;;;2.03;;
12048;SDS011;6085;49.452;8.502;2023-04-26T00:23:23;3.58;;;2.13;;
12048;SDS011;6085;49.452;8.502;2023-04-26T00:27:25;2.78;;;2.13;;
12048;SDS011;6085;49.452;8.502;2023-04-26T00:31:27;2.97;;;1.98;;
12048;SDS011;6085;49.452;8.502;2023-04-26T00:35:30;4.70;;;2.28;;
12048;SDS011;6085;49.452;8.502;2023-04-26T00:39:32;3.95;;;2.40;;
12048;SDS011;6085;49.452;8.502;2023-04-26T00:43:34;3.03;;;2.50;;
12048;SDS011;6085;49.452;8.502;2023-04-26T00:47:36;4.95;;;2.90;;
12048;SDS011;6085;49.452;8.502;2023-04-26T00:51:39;3.63;;;2.58;;
12048;SDS011;6085;49.452;8.502;2023-04-26T00:55:42;3.17;;;2.30;;
12048;SDS011;6085;49.452;8.502;2023-04-26T00:59:44;4.13;;;2.40;;
12048;SDS011;6085;49.452;8.502;2023-04-26T01:03:46;2.47;;;2.28;;
12048;SDS011;6085;49.452;8.502;2023-04-26T01:07:50;2.70;;;2.40;;
12048;SDS011;6085;49.452;8.502;2023-04-26T01:11:52;2.95;;;2.65;;
12048;SDS011;6085;49.452;8.502;2023-04-26T01:15:57;4.70;;;2.60;;
12048;SDS011;6085;49.452;8.502;2023-04-26T01:20:00;5.75;;;3.33;;
12048;SDS011;6085;49.452;8.502;2023-04-26T01:24:03;3.50;;;3.10;;
12048;SDS011;6085;49.452;8.502;2023-04-26T01:28:06;4.28;;;2.95;;
12048;SDS011;6085;49.452;8.502;2023-04-26T01:32:08;4.57;;;3.08;;
12048;SDS011;6085;49.452;8.502;2023-04-26T01:36:11;3.50;;;2.70;;
12048;SDS011;6085;49.452;8.502;2023-04-26T01:40:14;6.68;;;3.08;;
12048;SDS011;6085;49.452;8.502;2023-04-26T01:44:16;3.60;;;2.88;;
12048;SDS011;6085;49.452;8.502;2023-04-26T01:48:18;3.83;;;2.72;;
12048;SDS011;6085;49.452;8.502;2023-04-26T01:52:21;4.20;;;3.00;;
12048;SDS011;6085;49.452;8.502;2023-04-26T01:56:24;5.38;;;3.08;;
12048;SDS011;6085;49.452;8.502;2023-04-26T02:00:27;5.47;;;2.95;;
12048;SDS011;6085;49.452;8.502;2023-04-26T02:04:29;3.25;;;2.95;;
12048;SDS011;6085;49.452;8.502;2023-04-26T02:08:31;4.78;;;3.08;;
12048;SDS011;6085;49.452;8.502;2023-04-26T02:12:35;5.88;;;3.00;;
12048;SDS011;6085;49.452;8.502;2023-04-26T02:16:38;3.78;;;2.67;;
12048;SDS011;6085;49.452;8.502;2023-04-26T02:20:40;3.13;;;2.78;;
12048;SDS011;6085;49.452;8.502;2023-04-26T02:24:43;7.10;;;4.03;;
12048;SDS011;6085;49.452;8.502;2023-04-26T02:28:47;6.28;;;3.40;;
12048;SDS011;6085;49.452;8.502;2023-04-26T02:32:49;5.93;;;3.78;;
12048;SDS011;6085;49.452;8.502;2023-04-26T02:36:53;5.53;;;3.78;;
12048;SDS011;6085;49.452;8.502;2023-04-26T02:40:58;5.50;;;3.35;;
12048;SDS011;6085;49.452;8.502;2023-04-26T02:45:01;6.03;;;3.80;;
12048;SDS011;6085;49.452;8.502;2023-04-26T02:49:03;5.88;;;3.33;;
12048;SDS011;6085;49.452;8.502;2023-04-26T02:53:05;5.85;;;3.45;;
12048;SDS011;6085;49.452;8.502;2023-04-26T02:57:07;4.13;;;3.42;;
12048;SDS011;6085;49.452;8.502;2023-04-26T03:01:10;7.30;;;3.40;;
12048;SDS011;6085;49.452;8.502;2023-04-26T03:05:13;3.72;;;3.42;;
12048;SDS011;6085;49.452;8.502;2023-04-26T03:09:15;8.93;;;4.05;;
12048;SDS011;6085;49.452;8.502;2023-04-26T03:13:17;5.68;;;3.83;;
12048;SDS011;6085;49.452;8.502;2023-04-26T03:17:20;6.32;;;3.88;;
12048;SDS011;6085;49.452;8.502;2023-04-26T03:21:22;5.03;;;3.40;;
12048;SDS011;6085;49.452;8.502;2023-04-26T03:25:24;4.75;;;4.00;;
12048;SDS011;6085;49.452;8.502;2023-04-26T03:29:26;4.90;;;3.63;;
12048;SDS011;6085;49.452;8.502;2023-04-26T03:33:29;5.13;;;3.75;;
12048;SDS011;6085;49.452;8.502;2023-04-26T03:37:32;3.90;;;3.50;;
12048;SDS011;6085;49.452;8.502;2023-04-26T03:41:34;6.38;;;3.80;;
12048;SDS011;6085;49.452;8.502;2023-04-26T03:45:38;3.92;;;3.53;;
12048;SDS011;6085;49.452;8.502;2023-04-26T03:49:41;4.13;;;3.78;;
12048;SDS011;6085;49.452;8.502;2023-04-26T03:53:43;5.07;;;3.95;;
12048;SDS011;6085;49.452;8.502;2023-04-26T03:57:45;5.57;;;3.97;;
12048;SDS011;6085;49.452;8.502;2023-04-26T04:01:47;4.75;;;3.58;;
12048;SDS011;6085;49.452;8.502;2023-04-26T04:05:51;5.72;;;3.95;;
12048;SDS011;6085;49.452;8.502;2023-04-26T04:09:53;6.90;;;3.88;;
12048;SDS011;6085;49.452;8.502;2023-04-26T04:13:55;4.32;;;3.92;;
12048;SDS011;6085;49.452;8.502;2023-04-26T04:17:57;4.82;;;4.10;;
12048;SDS011;6085;49.452;8.502;2023-04-26T04:22:00;6.10;;;4.28;;
12048;SDS011;6085;49.452;8.502;2023-04-26T04:26:02;6.30;;;4.15;;
12048;SDS011;6085;49.452;8.502;2023-04-26T04:30:05;6.07;;;4.28;;
12048;SDS011;6085;49.452;8.502;2023-04-26T04:34:08;4.80;;;4.32;;
12048;SDS011;6085;49.452;8.502;2023-04-26T04:38:11;6.95;;;4.53;;
12048;SDS011;6085;49.452;8.502;2023-04-26T04:42:13;8.48;;;5.10;;
12048;SDS011;6085;49.452;8.502;2023-04-26T04:46:15;7.22;;;4.70;;
12048;SDS011;6085;49.452;8.502;2023-04-26T04:50:17;9.98;;;5.13;;
12048;SDS011;6085;49.452;8.502;2023-04-26T04:54:20;10.95;;;5.70;;
12048;SDS011;6085;49.452;8.502;2023-04-26T04:58:22;7.50;;;5.80;;
12048;SDS011;6085;49.452;8.502;2023-04-26T05:02:24;7.97;;;6.10;;
12048;SDS011;6085;49.452;8.502;2023-04-26T05:06:26;8.18;;;6.50;;
12048;SDS011;6085;49.452;8.502;2023-04-26T05:10:30;12.75;;;7.35;;
12048;SDS011;6085;49.452;8.502;2023-04-26T05:14:32;9.13;;;6.13;;
12048;SDS011;6085;49.452;8.502;2023-04-26T05:18:34;8.02;;;5.78;;
12048;SDS011;6085;49.452;8.502;2023-04-26T05:22:36;6.05;;;5.05;;
12048;SDS011;6085;49.452;8.502;2023-04-26T05:26:40;5.53;;;4.35;;
12048;SDS011;6085;49.452;8.502;2023-04-26T05:30:42;6.07;;;4.03;;
12048;SDS011;6085;49.452;8.502;2023-04-26T05:34:44;4.60;;;3.95;;
12048;SDS011;6085;49.452;8.502;2023-04-26T05:38:46;6.70;;;3.95;;
12048;SDS011;6085;49.452;8.502;2023-04-26T05:42:49;6.25;;;3.88;;
12048;SDS011;6085;49.452;8.502;2023-04-26T05:46:51;7.60;;;3.53;;
12048;SDS011;6085;49.452;8.502;2023-04-26T05:50:53;6.28;;;3.78;;
12048;SDS011;6085;49.452;8.502;2023-04-26T05:54:55;9.27;;;3.90;;
12048;SDS011;6085;49.452;8.502;2023-04-26T05:58:58;6.70;;;3.60;;
12048;SDS011;6085;49.452;8.502;2023-04-26T06:03:01;6.07;;;3.70;;
12048;SDS011;6085;49.452;8.502;2023-04-26T06:07:03;5.03;;;3.92;;
12048;SDS011;6085;49.452;8.502;2023-04-26T06:11:06;3.80;;;3.30;;
12048;SDS011;6085;49.452;8.502;2023-04-26T06:15:10;6.28;;;3.25;;
12048;SDS011;6085;49.452;8.502;2023-04-26T06:19:13;3.95;;;2.88;;
12048;SDS011;6085;49.452;8.502;2023-04-26T06:23:14;7.07;;;3.10;;
12048;SDS011;6085;49.452;8.502;2023-04-26T06:27:17;5.30;;;3.20;;
12048;SDS011;6085;49.452;8.502;2023-04-26T06:31:20;6.35;;;3.70;;
12048;SDS011;6085;49.452;8.502;2023-04-26T06:35:22;7.60;;;3.80;;
12048;SDS011;6085;49.452;8.502;2023-04-26T06:39:24;4.47;;;3.10;;
12048;SDS011;6085;49.452;8.502;2023-04-26T06:43:26;4.45;;;3.25;;
12048;SDS011;6085;49.452;8.502;2023-04-26T06:47:30;4.10;;;3.50;;
12048;SDS011;6085;49.452;8.502;2023-04-26T06:51:32;6.15;;;3.40;;
12048;SDS011;6085;49.452;8.502;2023-04-26T06:55:35;6.10;;;3.60;;
12048;SDS011;6085;49.452;8.502;2023-04-26T06:59:37;5.30;;;3.63;;
12048;SDS011;6085;49.452;8.502;2023-04-26T07:03:40;5.18;;;3.03;;
12048;SDS011;6085;49.452;8.502;2023-04-26T07:07:42;4.55;;;3.53;;
12048;SDS011;6085;49.452;8.502;2023-04-26T07:11:44;6.88;;;3.35;;
12048;SDS011;6085;49.452;8.502;2023-04-26T07:15:47;3.05;;;2.72;;
12048;SDS011;6085;49.452;8.502;2023-04-26T07:19:51;8.48;;;3.55;;
12048;SDS011;6085;49.452;8.502;2023-04-26T07:23:53;4.88;;;3.30;;
12048;SDS011;6085;49.452;8.502;2023-04-26T07:27:55;6.07;;;3.38;;
12048;SDS011;6085;49.452;8.502;2023-04-26T07:31:57;3.67;;;2.92;;
12048;SDS011;6085;49.452;8.502;2023-04-26T07:36:00;5.63;;;2.95;;
12048;SDS011;6085;49.452;8.502;2023-04-26T07:40:03;4.43;;;3.13;;
12048;SDS011;6085;49.452;8.502;2023-04-26T07:44:08;4.13;;;3.22;;
12048;SDS011;6085;49.452;8.502;2023-04-26T07:48:10;5.40;;;3.30;;
12048;SDS011;6085;49.452;8.502;2023-04-26T07:52:14;4.97;;;3.13;;
12048;SDS011;6085;49.452;8.502;2023-04-26T07:56:16;5.50;;;3.05;;
12048;SDS011;6085;49.452;8.502;2023-04-26T08:00:18;4.20;;;3.15;;
12048;SDS011;6085;49.452;8.502;2023-04-26T08:04:29;4.88;;;3.10;;
12048;SDS011;6085;49.452;8.502;2023-04-26T08:08:34;5.90;;;2.90;;
12048;SDS011;6085;49.452;8.502;2023-04-26T08:12:41;6.65;;;2.92;;
12048;SDS011;6085;49.452;8.502;2023-04-26T08:16:44;3.60;;;2.80;;
12048;SDS011;6085;49.452;8.502;2023-04-26T08:20:46;4.40;;;2.42;;
12048;SDS011;6085;49.452;8.502;2023-04-26T08:24:51;4.38;;;2.58;;
12048;SDS011;6085;49.452;8.502;2023-04-26T08:28:54;5.18;;;2.50;;
12048;SDS011;6085;49.452;8.502;2023-04-26T08:32:57;6.68;;;3.03;;
12048;SDS011;6085;49.452;8.502;2023-04-26T08:37:00;4.60;;;2.78;;
12048;SDS011;6085;49.452;8.502;2023-04-26T08:41:03;3.75;;;2.55;;
12048;SDS011;6085;49.452;8.502;2023-04-26T08:45:07;4.93;;;2.88;;
12048;SDS011;6085;49.452;8.502;2023-04-26T08:49:12;5.32;;;3.00;;
12048;SDS011;6085;49.452;8.502;2023-04-26T08:53:22;6.53;;;2.92;;
12048;SDS011;6085;49.452;8.502;2023-04-26T08:57:26;4.97;;;2.50;;
12048;SDS011;6085;49.452;8.502;2023-04-26T09:01:31;4.13;;;2.33;;
12048;SDS011;6085;49.452;8.502;2023-04-26T09:05:34;4.20;;;2.55;;
12048;SDS011;6085;49.452;8.502;2023-04-26T09:09:40;3.80;;;2.00;;
12048;SDS011;6085;49.452;8.502;2023-04-26T09:13:44;3.78;;;2.33;;
12048;SDS011;6085;49.452;8.502;2023-04-26T09:17:46;4.97;;;2.50;;
12048;SDS011;6085;49.452;8.502;2023-04-26T09:21:48;3.95;;;2.25;;
12048;SDS011;6085;49.452;8.502;2023-04-26T09:25:50;4.38;;;2.25;;
12048;SDS011;6085;49.452;8.502;2023-04-26T09:29:57;3.63;;;2.10;;
12048;SDS011;6085;49.452;8.502;2023-04-26T09:34:00;4.68;;;2.95;;
12048;SDS011;6085;49.452;8.502;2023-04-26T09:38:03;5.25;;;2.70;;
12048;SDS011;6085;49.452;8.502;2023-04-26T09:42:07;6.25;;;2.70;;
12048;SDS011;6085;49.452;8.502;2023-04-26T09:46:19;6.00;;;2.70;;
12048;SDS011;6085;49.452;8.502;2023-04-26T09:50:29;4.32;;;2.67;;
12048;SDS011;6085;49.452;8.502;2023-04-26T09:54:38;3.97;;;2.60;;
12048;SDS011;6085;49.452;8.502;2023-04-26T09:58:54;6.43;;;3.10;;
12048;SDS011;6085;49.452;8.502;2023-04-26T10:02:59;4.20;;;3.17;;
12048;SDS011;6085;49.452;8.502;2023-04-26T10:07:01;5.22;;;2.85;;
12048;SDS011;6085;49.452;8.502;2023-04-26T10:11:04;4.72;;;3.08;;
12048;SDS011;6085;49.452;8.502;2023-04-26T10:15:09;4.53;;;2.58;;
12048;SDS011;6085;49.452;8.502;2023-04-26T10:19:13;4.28;;;3.10;;
12048;SDS011;6085;49.452;8.502;2023-04-26T10:23:16;3.42;;;2.75;;
12048;SDS011;6085;49.452;8.502;2023-04-26T10:32:07;5.05;;;2.75;;
12048;SDS011;6085;49.452;8.502;2023-04-26T10:36:12;4.13;;;2.40;;
12048;SDS011;6085;49.452;8.502;2023-04-26T10:40:23;5.80;;;3.90;;
12048;SDS011;6085;49.452;8.502;2023-04-26T10:44:36;11.45;;;4.18;;
12048;SDS011;6085;49.452;8.502;2023-04-26T10:48:40;4.50;;;4.05;;
12048;SDS011;6085;49.452;8.502;2023-04-26T10:57:06;5.18;;;4.20;;
12048;SDS011;6085;49.452;8.502;2023-04-26T11:01:08;6.78;;;3.75;;
12048;SDS011;6085;49.452;8.502;2023-04-26T11:05:32;5.50;;;3.78;;
12048;SDS011;6085;49.452;8.502;2023-04-26T11:09:48;5.32;;;3.58;;
12048;SDS011;6085;49.452;8.502;2023-04-26T11:13:50;5.25;;;3.10;;
12048;SDS011;6085;49.452;8.502;2023-04-26T11:17:52;4.60;;;3.63;;
12048;SDS011;6085;49.452;8.502;2023-04-26T11:21:54;4.95;;;3.70;;
12048;SDS011;6085;49.452;8.502;2023-04-26T11:25:57;4.18;;;3.50;;
12048;SDS011;6085;49.452;8.502;2023-04-26T11:30:02;4.50;;;3.55;;
12048;SDS011;6085;49.452;8.502;2023-04-26T11:34:04;5.78;;;3.35;;
12048;SDS011;6085;49.452;8.502;2023-04-26T11:38:06;5.35;;;3.72;;
12048;SDS011;6085;49.452;8.502;2023-04-26T11:42:11;4.63;;;3.28;;
12048;SDS011;6085;49.452;8.502;2023-04-26T11:46:13;4.18;;;2.90;;
12048;SDS011;6085;49.452;8.502;2023-04-26T11:50:15;4.88;;;3.05;;
12048;SDS011;6085;49.452;8.502;2023-04-26T11:54:29;3.53;;;3.05;;
12048;SDS011;6085;49.452;8.502;2023-04-26T11:58:33;5.38;;;3.58;;
12048;SDS011;6085;49.452;8.502;2023-04-26T12:02:35;3.83;;;3.28;;
12048;SDS011;6085;49.452;8.502;2023-04-26T12:06:40;4.22;;;3.20;;
12048;SDS011;6085;49.452;8.502;2023-04-26T12:10:45;4.20;;;3.03;;
12048;SDS011;6085;49.452;8.502;2023-04-26T12:14:48;3.85;;;3.00;;
12048;SDS011;6085;49.452;8.502;2023-04-26T12:18:50;3.92;;;3.50;;
12048;SDS011;6085;49.452;8.502;2023-04-26T12:22:56;3.88;;;3.42;;
12048;SDS011;6085;49.452;8.502;2023-04-26T12:27:02;5.05;;;3.72;;
12048;SDS011;6085;49.452;8.502;2023-04-26T12:31:07;5.68;;;3.67;;
12048;SDS011;6085;49.452;8.502;2023-04-26T12:35:09;4.68;;;3.42;;
12048;SDS011;6085;49.452;8.502;2023-04-26T12:39:11;3.88;;;3.38;;
12048;SDS011;6085;49.452;8.502;2023-04-26T12:43:14;3.50;;;3.20;;
12048;SDS011;6085;49.452;8.502;2023-04-26T12:47:18;4.75;;;3.35;;
12048;SDS011;6085;49.452;8.502;2023-04-26T12:51:20;3.92;;;3.50;;
12048;SDS011;6085;49.452;8.502;2023-04-26T12:55:22;5.93;;;3.65;;
12048;SDS011;6085;49.452;8.502;2023-04-26T12:59:24;4.13;;;3.80;;
12048;SDS011;6085;49.452;8.502;2023-04-26T13:03:27;4.15;;;3.75;;
12048;SDS011;6085;49.452;8.502;2023-04-26T13:07:30;4.80;;;3.90;;
12048;SDS011;6085;49.452;8.502;2023-04-26T13:11:32;3.72;;;3.30;;
12048;SDS011;6085;49.452;8.502;2023-04-26T13:15:34;7.72;;;3.83;;
12048;SDS011;6085;49.452;8.502;2023-04-26T13:19:37;5.18;;;3.85;;
12048;SDS011;6085;49.452;8.502;2023-04-26T13:23:39;4.20;;;3.70;;
12048;SDS011;6085;49.452;8.502;2023-04-26T13:27:41;4.10;;;3.35;;
12048;SDS011;6085;49.452;8.502;2023-04-26T13:31:43;4.93;;;3.13;;
12048;SDS011;6085;49.452;8.502;2023-04-26T13:35:47;6.70;;;3.60;;
12048;SDS011;6085;49.452;8.502;2023-04-26T13:39:49;4.15;;;3.00;;
12048;SDS011;6085;49.452;8.502;2023-04-26T13:43:51;5.95;;;3.67;;
12048;SDS011;6085;49.452;8.502;2023-04-26T13:47:52;6.35;;;3.58;;
12048;SDS011;6085;49.452;8.502;2023-04-26T13:51:56;4.90;;;3.70;;
12048;SDS011;6085;49.452;8.502;2023-04-26T13:55:58;5.70;;;3.60;;
12048;SDS011;6085;49.452;8.502;2023-04-26T14:00:00;6.25;;;3.63;;
12048;SDS011;6085;49.452;8.502;2023-04-26T14:04:03;5.28;;;3.80;;
12048;SDS011;6085;49.452;8.502;2023-04-26T14:08:06;6.10;;;3.60;;
12048;SDS011;6085;49.452;8.502;2023-04-26T14:12:09;5.28;;;2.97;;
12048;SDS011;6085;49.452;8.502;2023-04-26T14:16:11;4.60;;;3.25;;
12048;SDS011;6085;49.452;8.502;2023-04-26T14:20:13;4.68;;;3.08;;
12048;SDS011;6085;49.452;8.502;2023-04-26T14:24:16;4.45;;;2.70;;
12048;SDS011;6085;49.452;8.502;2023-04-26T14:28:18;3.47;;;2.63;;
12048;SDS011;6085;49.452;8.502;2023-04-26T14:32:20;4.07;;;2.92;;
12048;SDS011;6085;49.452;8.502;2023-04-26T14:36:23;4.32;;;3.25;;
12048;SDS011;6085;49.452;8.502;2023-04-26T14:40:26;5.88;;;3.20;;
12048;SDS011;6085;49.452;8.502;2023-04-26T14:44:29;4.85;;;2.80;;
12048;SDS011;6085;49.452;8.502;2023-04-26T14:48:31;5.05;;;2.75;;
12048;SDS011;6085;49.452;8.502;2023-04-26T14:52:33;5.57;;;2.78;;
12048;SDS011;6085;49.452;8.502;2023-04-26T14:56:37;3.72;;;2.80;;
12048;SDS011;6085;49.452;8.502;2023-04-26T15:00:39;5.00;;;3.13;;
12048;SDS011;6085;49.452;8.502;2023-04-26T15:04:42;4.35;;;3.10;;
12048;SDS011;6085;49.452;8.502;2023-04-26T15:08:44;5.68;;;2.95;;
12048;SDS011;6085;49.452;8.502;2023-04-26T15:12:47;5.22;;;2.72;;
12048;SDS011;6085;49.452;8.502;2023-04-26T15:16:49;3.85;;;2.45;;
12048;SDS011;6085;49.452;8.502;2023-04-26T15:20:51;2.60;;;2.33;;
12048;SDS011;6085;49.452;8.502;2023-04-26T15:24:54;4.05;;;2.75;;
12048;SDS011;6085;49.452;8.502;2023-04-26T15:28:58;3.88;;;2.70;;
12048;SDS011;6085;49.452;8.502;2023-04-26T15:33:00;2.97;;;2.40;;
12048;SDS011;6085;49.452;8.502;2023-04-26T15:37:02;4.50;;;2.40;;
12048;SDS011;6085;49.452;8.502;2023-04-26T15:41:04;4.28;;;2.67;;
12048;SDS011;6085;49.452;8.502;2023-04-26T15:45:07;4.78;;;2.60;;
12048;SDS011;6085;49.452;8.502;2023-04-26T15:49:10;4.50;;;2.38;;
12048;SDS011;6085;49.452;8.502;2023-04-26T15:53:12;5.03;;;2.63;;
12048;SDS011;6085;49.452;8.502;2023-04-26T15:57:14;4.57;;;3.22;;
12048;SDS011;6085;49.452;8.502;2023-04-26T16:01:18;3.53;;;2.80;;
12048;SDS011;6085;49.452;8.502;2023-04-26T16:05:20;4.95;;;2.45;;
12048;SDS011;6085;49.452;8.502;2023-04-26T16:09:22;5.32;;;2.80;;
12048;SDS011;6085;49.452;8.502;2023-04-26T16:13:24;3.45;;;2.60;;
12048;SDS011;6085;49.452;8.502;2023-04-26T16:17:27;5.47;;;2.88;;
12048;SDS011;6085;49.452;8.502;2023-04-26T16:21:29;3.20;;;2.47;;
12048;SDS011;6085;49.452;8.502;2023-04-26T16:25:32;2.92;;;2.50;;
12048;SDS011;6085;49.452;8.502;2023-04-26T16:29:34;3.40;;;2.50;;
12048;SDS011;6085;49.452;8.502;2023-04-26T16:33:37;3.78;;;2.58;;
12048;SDS011;6085;49.452;8.502;2023-04-26T16:37:39;4.35;;;2.53;;
12048;SDS011;6085;49.452;8.502;2023-04-26T16:41:43;3.00;;;2.33;;
12048;SDS011;6085;49.452;8.502;2023-04-26T16:45:45;3.10;;;2.58;;
12048;SDS011;6085;49.452;8.502;2023-04-26T16:49:48;3.65;;;2.45;;
12048;SDS011;6085;49.452;8.502;2023-04-26T16:53:51;3.50;;;2.30;;
12048;SDS011;6085;49.452;8.502;2023-04-26T16:57:53;3.25;;;2.22;;
12048;SDS011;6085;49.452;8.502;2023-04-26T17:01:55;3.22;;;2.10;;
12048;SDS011;6085;49.452;8.502;2023-04-26T17:05:58;2.95;;;2.08;;
12048;SDS011;6085;49.452;8.502;2023-04-26T17:10:00;3.83;;;2.45;;
12048;SDS011;6085;49.452;8.502;2023-04-26T17:14:02;3.00;;;2.30;;
12048;SDS011;6085;49.452;8.502;2023-04-26T17:18:05;4.75;;;2.47;;
12048;SDS011;6085;49.452;8.502;2023-04-26T17:22:09;3.38;;;2.10;;
12048;SDS011;6085;49.452;8.502;2023-04-26T17:26:11;4.88;;;2.20;;
12048;SDS011;6085;49.452;8.502;2023-04-26T17:30:13;2.83;;;2.38;;
12048;SDS011;6085;49.452;8.502;2023-04-26T17:34:15;2.45;;;2.22;;
12048;SDS011;6085;49.452;8.502;2023-04-26T17:38:19;3.03;;;2.10;;
12048;SDS011;6085;49.452;8.502;2023-04-26T17:42:20;3.22;;;2.15;;
12048;SDS011;6085;49.452;8.502;2023-04-26T17:46:22;2.80;;;2.25;;
12048;SDS011;6085;49.452;8.502;2023-04-26T17:50:24;4.60;;;2.30;;
12048;SDS011;6085;49.452;8.502;2023-04-26T17:54:28;5.25;;;2.20;;
12048;SDS011;6085;49.452;8.502;2023-04-26T17:58:30;2.33;;;1.70;;
12048;SDS011;6085;49.452;8.502;2023-04-26T18:02:32;2.42;;;2.00;;
12048;SDS011;6085;49.452;8.502;2023-04-26T18:06:33;4.22;;;1.95;;
12048;SDS011;6085;49.452;8.502;2023-04-26T18:10:38;4.43;;;1.98;;
12048;SDS011;6085;49.452;8.502;2023-04-26T18:14:40;1.90;;;1.75;;
12048;SDS011;6085;49.452;8.502;2023-04-26T18:18:44;3.03;;;2.10;;
12048;SDS011;6085;49.452;8.502;2023-04-26T18:22:46;3.50;;;1.90;;
12048;SDS011;6085;49.452;8.502;2023-04-26T18:26:49;1.88;;;1.73;;
12048;SDS011;6085;49.452;8.502;2023-04-26T18:30:54;2.88;;;2.13;;
12048;SDS011;6085;49.452;8.502;2023-04-26T18:34:57;3.67;;;2.03;;
12048;SDS011;6085;49.452;8.502;2023-04-26T18:38:59;4.47;;;2.00;;
12048;SDS011;6085;49.452;8.502;2023-04-26T18:43:03;1.90;;;1.65;;
12048;SDS011;6085;49.452;8.502;2023-04-26T18:47:05;2.97;;;1.80;;
12048;SDS011;6085;49.452;8.502;2023-04-26T18:51:06;3.58;;;2.00;;
12048;SDS011;6085;49.452;8.502;2023-04-26T18:55:09;4.18;;;2.10;;
12048;SDS011;6085;49.452;8.502;2023-04-26T18:59:12;2.83;;;1.80;;
12048;SDS011;6085;49.452;8.502;2023-04-26T19:03:14;2.33;;;1.48;;
12048;SDS011;6085;49.452;8.502;2023-04-26T19:07:16;1.60;;;1.48;;
12048;SDS011;6085;49.452;8.502;2023-04-26T19:11:18;1.73;;;1.60;;
12048;SDS011;6085;49.452;8.502;2023-04-26T19:15:21;3.85;;;1.70;;
12048;SDS011;6085;49.452;8.502;2023-04-26T19:19:23;3.28;;;2.00;;
12048;SDS011;6085;49.452;8.502;2023-04-26T19:23:25;2.80;;;1.90;;
12048;SDS011;6085;49.452;8.502;2023-04-26T19:27:27;3.67;;;1.98;;
12048;SDS011;6085;49.452;8.502;2023-04-26T19:31:30;1.60;;;1.50;;
12048;SDS011;6085;49.452;8.502;2023-04-26T19:35:32;2.88;;;2.10;;
12048;SDS011;6085;49.452;8.502;2023-04-26T19:39:34;3.47;;;1.90;;
12048;SDS011;6085;49.452;8.502;2023-04-26T19:43:36;2.85;;;1.60;;
12048;SDS011;6085;49.452;8.502;2023-04-26T19:47:40;2.38;;;1.42;;
12048;SDS011;6085;49.452;8.502;2023-04-26T19:51:42;3.97;;;2.53;;
12048;SDS011;6085;49.452;8.502;2023-04-26T19:55:44;3.38;;;2.72;;
12048;SDS011;6085;49.452;8.502;2023-04-26T19:59:46;3.63;;;2.20;;
12048;SDS011;6085;49.452;8.502;2023-04-26T20:03:50;2.28;;;1.80;;
12048;SDS011;6085;49.452;8.502;2023-04-26T20:07:52;2.90;;;1.75;;
12048;SDS011;6085;49.452;8.502;2023-04-26T20:11:54;3.00;;;2.05;;
12048;SDS011;6085;49.452;8.502;2023-04-26T20:15:57;2.63;;;1.83;;
12048;SDS011;6085;49.452;8.502;2023-04-26T20:20:00;3.33;;;2.25;;
12048;SDS011;6085;49.452;8.502;2023-04-26T20:24:02;3.72;;;2.15;;
12048;SDS011;6085;49.452;8.502;2023-04-26T20:28:05;1.88;;;1.75;;
12048;SDS011;6085;49.452;8.502;2023-04-26T20:32:07;2.17;;;1.90;;
12048;SDS011;6085;49.452;8.502;2023-04-26T20:36:10;1.92;;;1.80;;
12048;SDS011;6085;49.452;8.502;2023-04-26T20:40:13;2.00;;;1.80;;
12048;SDS011;6085;49.452;8.502;2023-04-26T20:44:14;3.25;;;2.00;;
12048;SDS011;6085;49.452;8.502;2023-04-26T20:48:16;2.20;;;1.88;;
12048;SDS011;6085;49.452;8.502;2023-04-26T20:52:20;2.90;;;1.95;;
12048;SDS011;6085;49.452;8.502;2023-04-26T20:56:22;2.88;;;2.20;;
12048;SDS011;6085;49.452;8.502;2023-04-26T21:00:24;2.15;;;1.70;;
12048;SDS011;6085;49.452;8.502;2023-04-26T21:04:26;2.63;;;1.95;;
12048;SDS011;6085;49.452;8.502;2023-04-26T21:08:29;3.80;;;1.83;;
12048;SDS011;6085;49.452;8.502;2023-04-26T21:12:31;4.43;;;2.17;;
12048;SDS011;6085;49.452;8.502;2023-04-26T21:16:33;3.33;;;2.17;;
12048;SDS011;6085;49.452;8.502;2023-04-26T21:20:35;2.35;;;2.15;;
12048;SDS011;6085;49.452;8.502;2023-04-26T21:24:38;2.28;;;1.80;;
12048;SDS011;6085;49.452;8.502;2023-04-26T21:28:40;3.03;;;2.08;;
12048;SDS011;6085;49.452;8.502;2023-04-26T21:32:42;2.65;;;2.45;;
12048;SDS011;6085;49.452;8.502;2023-04-26T21:36:45;3.90;;;2.20;;
12048;SDS011;6085;49.452;8.502;2023-04-26T21:40:48;2.67;;;2.10;;
12048;SDS011;6085;49.452;8.502;2023-04-26T21:44:50;2.88;;;2.20;;
12048;SDS011;6085;49.452;8.502;2023-04-26T21:48:52;2.40;;;2.17;;
12048;SDS011;6085;49.452;8.502;2023-04-26T21:52:54;2.80;;;2.20;;
12048;SDS011;6085;49.452;8.502;2023-04-26T21:56:57;5.35;;;3.85;;
12048;SDS011;6085;49.452;8.502;2023-04-26T22:01:06;6.10;;;4.72;;
12048;SDS011;6085;49.452;8.502;2023-04-26T22:05:09;5.47;;;4.00;;
12048;SDS011;6085;49.452;8.502;2023-04-26T22:09:11;6.15;;;3.67;;
12048;SDS011;6085;49.452;8.502;2023-04-26T22:13:15;4.32;;;3.10;;
12048;SDS011;6085;49.452;8.502;2023-04-26T22:17:16;4.65;;;3.00;;
12048;SDS011;6085;49.452;8.502;2023-04-26T22:21:18;4.35;;;2.80;;
12048;SDS011;6085;49.452;8.502;2023-04-26T22:25:21;5.38;;;3.30;;
12048;SDS011;6085;49.452;8.502;2023-04-26T22:29:24;3.47;;;3.03;;
12048;SDS011;6085;49.452;8.502;2023-04-26T22:33:29;4.05;;;2.83;;
12048;SDS011;6085;49.452;8.502;2023-04-26T22:37:31;3.45;;;2.75;;
12048;SDS011;6085;49.452;8.502;2023-04-26T22:41:33;5.25;;;3.25;;
12048;SDS011;6085;49.452;8.502;2023-04-26T22:45:36;3.08;;;2.53;;
12048;SDS011;6085;49.452;8.502;2023-04-26T22:49:38;3.13;;;2.58;;
12048;SDS011;6085;49.452;8.502;2023-04-26T22:53:40;3.15;;;2.80;;
12048;SDS011;6085;49.452;8.502;2023-04-26T22:57:42;2.97;;;2.72;;
12048;SDS011;6085;49.452;8.502;2023-04-26T23:01:45;7.07;;;3.05;;
12048;SDS011;6085;49.452;8.502;2023-04-26T23:05:47;3.80;;;2.72;;
12048;SDS011;6085;49.452;8.502;2023-04-26T23:09:49;3.00;;;2.72;;
12048;SDS011;6085;49.452;8.502;2023-04-26T23:13:51;6.53;;;3.10;;
12048;SDS011;6085;49.452;8.502;2023-04-26T23:17:55;3.45;;;2.80;;
12048;SDS011;6085;49.452;8.502;2023-04-26T23:21:57;6.68;;;3.72;;
12048;SDS011;6085;49.452;8.502;2023-04-26T23:25:59;3.90;;;3.15;;
12048;SDS011;6085;49.452;8.502;2023-04-26T23:30:04;3.38;;;2.65;;
12048;SDS011;6085;49.452;8.502;2023-04-26T23:34:08;3.15;;;2.85;;
12048;SDS011;6085;49.452;8.502;2023-04-26T23:38:10;4.22;;;3.00;;
12048;SDS011;6085;49.452;8.502;2023-04-26T23:42:12;5.07;;;3.10;;
12048;SDS011;6085;49.452;8.502;2023-04-26T23:46:14;4.22;;;3.05;;
12048;SDS011;6085;49.452;8.502;2023-04-26T23:50:17;5.00;;;3.30;;
12048;SDS011;6085;49.452;8.502;2023-04-26T23:54:19;5.85;;;3.72;;
12048;SDS011;6085;49.452;8.502;2023-04-26T23:58:21;5.45;;;3.17;;
